createdAt,value
2018-07-15T00:00:26.603Z,78.63
2018-07-15T00:02:55.818Z,79.08
2018-07-15T00:05:24.979Z,78.57
2018-07-15T00:07:54.187Z,78.23
2018-07-15T00:10:23.359Z,77.90
2018-07-15T00:12:52.559Z,78.62
2018-07-15T00:15:21.826Z,78.11
2018-07-15T00:17:51.027Z,78.23
2018-07-15T00:20:20.488Z,78.05
2018-07-15T00:22:49.683Z,78.08
2018-07-15T00:25:18.994Z,77.75
2018-07-15T00:27:48.311Z,76.98
2018-07-15T00:30:17.552Z,75.83
2018-07-15T00:32:47.007Z,73.92
2018-07-15T00:35:16.503Z,74.11
2018-07-15T00:37:45.720Z,73.62
2018-07-15T00:40:14.908Z,73.04
2018-07-15T00:42:44.111Z,71.97
2018-07-15T00:45:13.267Z,71.90
2018-07-15T00:47:42.480Z,71.49
2018-07-15T00:50:11.676Z,70.51
2018-07-15T00:52:40.877Z,70.49
2018-07-15T00:55:10.134Z,69.76
2018-07-15T00:57:39.246Z,69.94
2018-07-15T01:00:08.660Z,69.65
2018-07-15T01:02:37.870Z,69.62
2018-07-15T01:05:07.090Z,70.58
2018-07-15T01:07:36.526Z,69.63
2018-07-15T01:10:05.759Z,70.80
2018-07-15T01:12:34.943Z,70.28
2018-07-15T01:15:04.345Z,69.32
2018-07-15T01:17:33.547Z,70.68
2018-07-15T01:20:02.979Z,71.66
2018-07-15T01:22:32.151Z,70.64
2018-07-15T01:25:01.332Z,70.74
2018-07-15T01:27:30.535Z,70.81
2018-07-15T01:30:00.043Z,70.42
2018-07-15T01:32:29.214Z,70.80
2018-07-15T01:34:58.379Z,71.64
2018-07-15T01:37:27.567Z,71.66
2018-07-15T01:39:56.743Z,72.18
2018-07-15T01:42:26.199Z,72.38
2018-07-15T01:44:55.367Z,71.74
2018-07-15T01:47:24.551Z,71.80
2018-07-15T01:49:53.745Z,71.67
2018-07-15T01:52:23.143Z,72.69
2018-07-15T01:54:52.315Z,72.05
2018-07-15T01:57:21.527Z,71.30
2018-07-15T01:59:51.711Z,71.67
2018-07-15T02:02:21.019Z,72.65
2018-07-15T02:04:50.192Z,72.19
2018-07-15T02:07:22.174Z,72.74
2018-07-15T02:09:51.474Z,73.01
2018-07-15T02:12:21.151Z,72.96
2018-07-15T02:14:50.446Z,72.60
2018-07-15T02:17:19.644Z,71.99
2018-07-15T02:19:48.824Z,71.84
2018-07-15T02:22:18.007Z,71.73
2018-07-15T02:24:47.188Z,70.85
2018-07-15T02:27:17.063Z,71.43
2018-07-15T02:29:46.270Z,71.51
2018-07-15T02:32:15.588Z,71.38
2018-07-15T02:34:44.805Z,72.36
2018-07-15T02:37:14.823Z,72.58
2018-07-15T02:39:43.995Z,73.34
2018-07-15T02:42:13.193Z,74.48
2018-07-15T02:44:42.631Z,74.26
2018-07-15T02:47:11.803Z,75.09
2018-07-15T02:49:40.976Z,74.75
2018-07-15T02:52:10.159Z,75.53
2018-07-15T02:54:39.619Z,75.66
2018-07-15T02:57:09.124Z,75.82
2018-07-15T02:59:38.677Z,76.29
2018-07-15T03:02:07.843Z,76.91
2018-07-15T03:04:37.011Z,76.81
2018-07-15T03:07:06.578Z,76.98
2018-07-15T03:09:35.759Z,76.96
2018-07-15T03:12:04.936Z,76.84
2018-07-15T03:14:34.121Z,77.04
2018-07-15T03:17:03.600Z,76.87
2018-07-15T03:19:33.171Z,75.57
2018-07-15T03:22:02.458Z,74.61
2018-07-15T03:24:31.652Z,74.00
2018-07-15T03:27:00.816Z,73.51
2018-07-15T03:29:29.999Z,74.37
2018-07-15T03:31:59.188Z,73.66
2018-07-15T03:34:28.675Z,74.80
2018-07-15T03:36:57.811Z,74.77
2018-07-15T03:39:27.023Z,74.47
2018-07-15T03:41:56.630Z,74.92
2018-07-15T03:44:25.827Z,74.92
2018-07-15T03:46:55.019Z,75.38
2018-07-15T03:49:24.239Z,76.11
2018-07-15T03:51:53.434Z,76.54
2018-07-15T03:54:22.668Z,76.44
2018-07-15T03:56:52.187Z,76.34
2018-07-15T03:59:21.407Z,76.90
2018-07-15T04:01:50.585Z,77.12
2018-07-15T04:04:19.920Z,77.62
2018-07-15T04:06:49.094Z,76.98
2018-07-15T04:09:18.547Z,77.36
2018-07-15T04:11:47.719Z,77.51
2018-07-15T04:14:17.643Z,77.01
2018-07-15T04:16:46.835Z,76.11
2018-07-15T04:19:16.055Z,76.25
2018-07-15T04:21:45.236Z,74.56
2018-07-15T04:24:14.558Z,75.29
2018-07-15T04:26:43.731Z,74.19
2018-07-15T04:29:12.974Z,74.02
2018-07-15T04:31:42.175Z,73.74
2018-07-15T04:34:11.722Z,74.60
2018-07-15T04:36:40.888Z,74.99
2018-07-15T04:39:10.549Z,74.93
2018-07-15T04:41:39.723Z,75.98
2018-07-15T04:44:08.932Z,75.34
2018-07-15T04:46:38.183Z,76.03
2018-07-15T04:49:07.730Z,75.74
2018-07-15T04:51:36.939Z,74.35
2018-07-15T04:54:06.463Z,73.97
2018-07-15T04:56:35.651Z,72.03
2018-07-15T04:59:04.882Z,71.20
2018-07-15T05:01:37.862Z,71.18
2018-07-15T05:04:07.287Z,71.33
2018-07-15T05:06:36.772Z,71.78
2018-07-15T05:09:06.887Z,71.25
2018-07-15T05:11:36.605Z,71.73
2018-07-15T05:14:05.978Z,72.45
2018-07-15T05:16:35.235Z,73.12
2018-07-15T05:19:04.499Z,70.05
2018-07-15T05:21:33.672Z,70.36
2018-07-15T05:24:02.888Z,67.91
2018-07-15T05:26:32.067Z,68.14
2018-07-15T05:29:01.263Z,68.18
2018-07-15T05:31:30.472Z,67.91
2018-07-15T05:33:59.683Z,65.32
2018-07-15T05:36:28.895Z,65.92
2018-07-15T05:38:58.134Z,65.26
2018-07-15T05:41:27.435Z,65.30
2018-07-15T05:43:56.831Z,65.25
2018-07-15T05:46:26.003Z,64.80
2018-07-15T05:48:55.239Z,64.36
2018-07-15T05:51:24.816Z,63.74
2018-07-15T05:53:54.015Z,63.16
2018-07-15T05:56:23.223Z,61.61
2018-07-15T05:58:52.430Z,61.43
2018-07-15T06:01:21.639Z,61.64
2018-07-15T06:03:50.844Z,61.32
2018-07-15T06:06:20.091Z,58.76
2018-07-15T06:08:49.287Z,55.83
2018-07-15T06:11:18.583Z,51.85
2018-07-15T06:13:47.755Z,51.42
2018-07-15T06:16:17.251Z,51.32
2018-07-15T06:18:46.443Z,48.39
2018-07-15T06:21:15.888Z,47.96
2018-07-15T06:23:45.100Z,46.59
2018-07-15T06:26:14.319Z,45.35
2018-07-15T06:28:43.803Z,45.54
2018-07-15T06:31:13.283Z,42.95
2018-07-15T06:33:42.695Z,44.38
2018-07-15T06:36:11.912Z,42.62
2018-07-15T06:38:41.113Z,43.65
2018-07-15T06:41:10.322Z,44.88
2018-07-15T06:43:39.491Z,43.21
2018-07-15T06:46:08.695Z,42.42
2018-07-15T06:48:37.887Z,41.08
2018-07-15T06:51:07.239Z,40.32
2018-07-15T06:53:36.426Z,42.55
2018-07-15T06:56:05.712Z,41.08
2018-07-15T06:58:34.875Z,39.90
2018-07-15T07:01:04.199Z,39.42
2018-07-15T07:03:33.379Z,39.39
2018-07-15T07:06:02.808Z,37.26
2018-07-15T07:08:32.011Z,36.70
2018-07-15T07:11:01.221Z,35.91
2018-07-15T07:13:30.408Z,35.33
2018-07-15T07:16:00.035Z,35.62
2018-07-15T07:18:29.232Z,34.07
2018-07-15T07:20:58.443Z,34.58
2018-07-15T07:23:27.755Z,35.30
2018-07-15T07:25:56.939Z,33.96
2018-07-15T07:28:26.270Z,35.28
2018-07-15T07:30:55.612Z,33.09
2018-07-15T07:33:24.791Z,33.34
2018-07-15T07:35:53.992Z,32.06
2018-07-15T07:38:23.166Z,31.17
2018-07-15T07:40:52.743Z,31.63
2018-07-15T07:43:21.919Z,32.55
2018-07-15T07:45:51.144Z,29.98
2018-07-15T07:48:20.328Z,29.55
2018-07-15T07:50:49.595Z,31.40
2018-07-15T07:53:18.787Z,28.44
2018-07-15T07:55:47.970Z,27.68
2018-07-15T07:58:17.303Z,27.29
2018-07-15T08:00:47.333Z,26.42
2018-07-15T08:03:16.508Z,27.07
2018-07-15T08:05:45.695Z,27.78
2018-07-15T08:08:14.878Z,29.71
2018-07-15T08:10:44.080Z,31.55
2018-07-15T08:13:13.331Z,32.48
2018-07-15T08:15:42.527Z,34.29
2018-07-15T08:18:11.827Z,32.73
2018-07-15T08:20:41.355Z,33.80
2018-07-15T08:23:10.858Z,34.90
2018-07-15T08:25:40.060Z,32.14
2018-07-15T08:28:09.300Z,31.19
2018-07-15T08:30:49.575Z,28.35
2018-07-15T08:33:18.815Z,31.02
2018-07-15T08:35:47.995Z,32.39
2018-07-15T08:38:17.447Z,32.11
2018-07-15T08:40:47.043Z,31.97
2018-07-15T08:43:16.149Z,33.90
2018-07-15T08:45:45.337Z,33.17
2018-07-15T08:48:14.515Z,35.70
2018-07-15T08:50:43.701Z,35.13
2018-07-15T08:53:13.119Z,34.38
2018-07-15T08:55:42.792Z,32.92
2018-07-15T08:58:12.101Z,32.81
2018-07-15T09:00:41.528Z,32.59
2018-07-15T09:03:10.790Z,31.43
2018-07-15T09:05:40.197Z,34.20
2018-07-15T09:08:09.416Z,33.24
2018-07-15T09:10:38.925Z,34.03
2018-07-15T09:13:08.543Z,32.15
2018-07-15T09:15:37.719Z,32.62
2018-07-15T09:18:06.931Z,33.49
2018-07-15T09:20:36.371Z,34.21
2018-07-15T09:23:05.675Z,32.95
2018-07-15T09:25:34.860Z,31.90
2018-07-15T09:28:04.177Z,32.84
2018-07-15T09:30:33.492Z,31.56
2018-07-15T09:33:02.670Z,31.50
2018-07-15T09:35:31.898Z,31.08
2018-07-15T09:38:01.051Z,28.97
2018-07-15T09:40:30.227Z,29.44
2018-07-15T09:42:59.472Z,28.74
2018-07-15T09:45:28.638Z,29.81
2018-07-15T09:47:57.875Z,25.75
2018-07-15T09:50:27.499Z,25.48
2018-07-15T09:52:56.691Z,27.10
2018-07-15T09:55:26.099Z,27.29
2018-07-15T09:57:55.291Z,24.59
2018-07-15T10:00:29.804Z,23.07
2018-07-15T10:02:59.027Z,21.28
2018-07-15T10:05:28.210Z,19.69
2018-07-15T10:07:57.411Z,20.48
2018-07-15T10:10:26.633Z,19.80
2018-07-15T10:12:58.782Z,20.91
2018-07-15T10:15:28.555Z,20.01
2018-07-15T10:17:57.767Z,22.24
2018-07-15T10:20:26.939Z,20.12
2018-07-15T10:22:56.334Z,20.61
2018-07-15T10:25:25.629Z,19.75
2018-07-15T10:27:54.843Z,18.27
2018-07-15T10:30:24.112Z,19.83
2018-07-15T10:32:53.531Z,17.05
2018-07-15T10:35:22.719Z,18.54
2018-07-15T10:37:52.676Z,18.35
2018-07-15T10:40:21.867Z,17.43
2018-07-15T10:42:51.078Z,17.70
2018-07-15T10:45:20.370Z,17.74
2018-07-15T10:47:49.870Z,15.93
2018-07-15T10:50:22.596Z,16.97
2018-07-15T10:52:53.181Z,15.23
2018-07-15T10:55:23.033Z,14.87
2018-07-15T10:57:52.298Z,15.80
2018-07-15T11:00:21.403Z,15.83
2018-07-15T11:02:50.623Z,16.38
2018-07-15T11:05:19.999Z,15.15
2018-07-15T11:07:49.203Z,15.55
2018-07-15T11:10:18.368Z,15.12
2018-07-15T11:12:47.632Z,15.87
2018-07-15T11:15:16.803Z,14.85
2018-07-15T11:17:45.993Z,15.29
2018-07-15T11:20:15.325Z,15.67
2018-07-15T11:22:44.514Z,14.29
2018-07-15T11:25:13.715Z,16.45
2018-07-15T11:27:42.915Z,15.45
2018-07-15T11:30:12.111Z,15.29
2018-07-15T11:32:41.424Z,14.70
2018-07-15T11:35:11.403Z,15.83
2018-07-15T11:37:40.633Z,17.51
2018-07-15T11:40:09.958Z,16.62
2018-07-15T11:42:39.189Z,16.14
2018-07-15T11:45:08.383Z,16.04
2018-07-15T11:47:37.602Z,15.38
2018-07-15T11:50:07.019Z,16.78
2018-07-15T11:52:37.134Z,16.89
2018-07-15T11:55:07.312Z,16.02
2018-07-15T11:57:36.836Z,15.94
2018-07-15T12:00:06.998Z,14.71
2018-07-15T12:02:36.267Z,19.67
2018-07-15T12:05:05.659Z,21.21
2018-07-15T12:07:36.463Z,20.02
2018-07-15T12:10:06.052Z,20.69
2018-07-15T12:12:35.563Z,22.86
2018-07-15T12:15:04.999Z,21.98
2018-07-15T12:17:34.198Z,23.96
2018-07-15T12:20:03.457Z,21.29
2018-07-15T12:22:33.326Z,17.82
2018-07-15T12:25:02.605Z,18.40
2018-07-15T12:27:32.167Z,18.16
2018-07-15T12:30:01.340Z,19.31
2018-07-15T12:32:30.652Z,20.78
2018-07-15T12:34:59.851Z,21.15
2018-07-15T12:37:29.103Z,19.43
2018-07-15T12:39:58.353Z,18.64
2018-07-15T12:42:27.539Z,16.78
2018-07-15T12:44:56.747Z,14.63
2018-07-15T12:47:25.960Z,15.13
2018-07-15T12:49:55.158Z,14.69
2018-07-15T12:52:24.527Z,15.72
2018-07-15T12:54:54.195Z,15.71
2018-07-15T12:57:23.399Z,14.84
2018-07-15T12:59:53.744Z,14.75
2018-07-15T13:02:23.203Z,15.49
2018-07-15T13:04:52.388Z,15.48
2018-07-15T13:07:21.579Z,16.61
2018-07-15T13:09:50.759Z,16.19
2018-07-15T13:12:19.975Z,15.25
2018-07-15T13:14:49.164Z,15.18
2018-07-15T13:17:18.426Z,15.13
2018-07-15T13:19:48.126Z,16.49
2018-07-15T13:22:17.306Z,14.40
2018-07-15T13:24:46.700Z,14.10
2018-07-15T13:27:16.579Z,15.01
2018-07-15T13:29:46.398Z,14.07
2018-07-15T13:32:15.507Z,16.01
2018-07-15T13:34:44.719Z,19.32
2018-07-15T13:37:14.467Z,20.50
2018-07-15T13:39:43.693Z,21.15
2018-07-15T13:42:12.875Z,20.99
2018-07-15T13:44:42.064Z,19.13
2018-07-15T13:47:11.723Z,17.41
2018-07-15T13:49:41.278Z,17.71
2018-07-15T13:52:11.191Z,19.45
2018-07-15T13:54:40.393Z,19.77
2018-07-15T13:57:09.567Z,19.93
2018-07-15T13:59:38.815Z,18.34
2018-07-15T14:02:08.043Z,17.42
2018-07-15T14:04:37.251Z,16.54
2018-07-15T14:07:06.407Z,16.72
2018-07-15T14:09:35.615Z,16.78
2018-07-15T14:12:04.915Z,16.33
2018-07-15T14:14:34.243Z,16.90
2018-07-15T14:17:03.616Z,16.91
2018-07-15T14:19:32.823Z,16.92
2018-07-15T14:22:02.423Z,16.89
2018-07-15T14:24:32.136Z,16.88
2018-07-15T14:27:01.300Z,17.98
2018-07-15T14:29:30.451Z,16.74
2018-07-15T14:31:59.624Z,19.40
2018-07-15T14:34:28.823Z,19.18
2018-07-15T14:36:58.103Z,18.68
2018-07-15T14:39:40.003Z,19.55
2018-07-15T14:42:09.287Z,19.79
2018-07-15T14:44:39.561Z,20.10
2018-07-15T14:47:09.396Z,19.69
2018-07-15T14:49:38.595Z,19.60
2018-07-15T14:52:07.774Z,20.01
2018-07-15T14:54:36.992Z,20.36
2018-07-15T14:57:06.813Z,20.66
2018-07-15T14:59:36.154Z,19.48
2018-07-15T15:02:05.431Z,18.19
2018-07-15T15:04:34.577Z,20.25
2018-07-15T15:07:03.724Z,19.34
2018-07-15T15:09:32.903Z,21.08
2018-07-15T15:12:02.073Z,20.15
2018-07-15T15:14:31.228Z,19.49
2018-07-15T15:17:00.375Z,20.76
2018-07-15T15:19:29.539Z,21.59
2018-07-15T15:21:58.708Z,21.73
2018-07-15T15:24:28.192Z,21.57
2018-07-15T15:26:57.412Z,23.06
2018-07-15T15:29:26.631Z,22.80
2018-07-15T15:31:56.004Z,21.91
2018-07-15T15:34:25.214Z,21.57
2018-07-15T15:36:54.411Z,21.78
2018-07-15T15:39:23.615Z,21.83
2018-07-15T15:41:53.501Z,22.00
2018-07-15T15:44:22.691Z,23.58
2018-07-15T15:46:52.072Z,23.57
2018-07-15T15:49:21.663Z,22.73
2018-07-15T15:51:50.955Z,23.93
2018-07-15T15:54:20.167Z,23.47
2018-07-15T15:56:49.349Z,22.56
2018-07-15T15:59:18.531Z,22.44
2018-07-15T16:01:47.704Z,23.90
2018-07-15T16:04:17.227Z,25.23
2018-07-15T16:06:47.645Z,25.09
2018-07-15T16:09:16.858Z,25.61
2018-07-15T16:11:46.023Z,25.21
2018-07-15T16:14:15.191Z,25.87
2018-07-15T16:16:44.739Z,24.97
2018-07-15T16:19:13.827Z,25.50
2018-07-15T16:21:42.991Z,25.42
2018-07-15T16:24:12.175Z,25.42
2018-07-15T16:26:41.354Z,25.74
2018-07-15T16:29:10.883Z,25.31
2018-07-15T16:31:40.044Z,26.01
2018-07-15T16:34:09.532Z,26.08
2018-07-15T16:36:38.667Z,26.63
2018-07-15T16:39:08.127Z,26.06
2018-07-15T16:41:37.703Z,26.82
2018-07-15T16:44:06.917Z,26.89
2018-07-15T16:46:36.062Z,25.64
2018-07-15T16:49:05.432Z,27.28
2018-07-15T16:51:34.632Z,31.04
2018-07-15T16:54:03.831Z,34.01
2018-07-15T16:56:33.123Z,36.82
2018-07-15T16:59:02.307Z,37.74
2018-07-15T17:01:31.511Z,37.80
2018-07-15T17:04:00.695Z,38.56
2018-07-15T17:06:29.984Z,38.59
2018-07-15T17:08:59.195Z,38.55
2018-07-15T17:11:28.696Z,37.67
2018-07-15T17:13:58.152Z,37.44
2018-07-15T17:16:27.339Z,38.11
2018-07-15T17:18:56.618Z,39.36
2018-07-15T17:21:25.843Z,40.46
2018-07-15T17:23:55.024Z,40.15
2018-07-15T17:26:25.150Z,40.65
2018-07-15T17:28:54.885Z,41.03
2018-07-15T17:31:24.074Z,42.77
2018-07-15T17:33:53.259Z,43.88
2018-07-15T17:36:22.458Z,44.55
2018-07-15T17:38:51.973Z,45.18
2018-07-15T17:41:21.287Z,44.80
2018-07-15T17:43:50.733Z,45.42
2018-07-15T17:46:19.948Z,45.44
2018-07-15T17:48:49.116Z,45.19
2018-07-15T17:51:18.295Z,45.37
2018-07-15T17:53:47.479Z,46.02
2018-07-15T17:56:16.695Z,46.88
2018-07-15T17:58:45.965Z,46.73
2018-07-15T18:01:15.835Z,46.79
2018-07-15T18:03:45.016Z,47.46
2018-07-15T18:06:14.902Z,47.24
2018-07-15T18:08:44.219Z,47.26
2018-07-15T18:11:13.681Z,47.50
2018-07-15T18:13:42.859Z,45.95
2018-07-15T18:16:12.101Z,46.97
2018-07-15T18:18:41.327Z,46.12
2018-07-15T18:21:10.799Z,45.76
2018-07-15T18:23:39.951Z,46.62
2018-07-15T18:26:09.195Z,46.12
2018-07-15T18:28:38.400Z,46.67
2018-07-15T18:31:08.841Z,46.33
2018-07-15T18:33:39.365Z,46.50
2018-07-15T18:36:09.171Z,46.30
2018-07-15T18:38:39.368Z,45.46
2018-07-15T18:41:09.932Z,45.51
2018-07-15T18:43:40.483Z,44.72
2018-07-15T18:46:10.664Z,44.35
2018-07-15T18:48:41.231Z,43.17
2018-07-15T18:51:10.545Z,42.76
2018-07-15T18:53:41.208Z,43.74
2018-07-15T18:56:10.639Z,43.48
2018-07-15T18:58:39.825Z,43.13
2018-07-15T19:01:09.007Z,43.14
2018-07-15T19:03:38.310Z,42.62
2018-07-15T19:06:08.215Z,42.43
2018-07-15T19:08:37.959Z,42.61
2018-07-15T19:11:08.872Z,42.42
2018-07-15T19:13:38.593Z,41.27
2018-07-15T19:16:08.930Z,42.46
2018-07-15T19:18:39.106Z,41.54
2018-07-15T19:21:09.149Z,41.53
2018-07-15T19:23:39.082Z,41.53
2018-07-15T19:26:08.784Z,42.22
2018-07-15T19:28:38.204Z,43.03
2018-07-15T19:31:07.655Z,44.28
2018-07-15T19:33:37.954Z,43.49
2018-07-15T19:36:07.509Z,44.22
2018-07-15T19:38:38.041Z,44.67
2018-07-15T19:41:07.882Z,44.47
2018-07-15T19:43:38.128Z,45.20
2018-07-15T19:46:08.231Z,46.43
2018-07-15T19:48:37.827Z,47.39
2018-07-15T19:51:08.810Z,47.13
2018-07-15T19:53:38.332Z,46.99
2018-07-15T19:56:09.681Z,47.40
2018-07-15T19:58:39.535Z,48.07
2018-07-15T20:01:09.723Z,48.78
2018-07-15T20:03:39.596Z,49.45
2018-07-15T20:06:10.224Z,49.86
2018-07-15T20:08:39.503Z,51.02
2018-07-15T20:11:09.000Z,51.74
2018-07-15T20:13:38.207Z,51.81
2018-07-15T20:16:07.491Z,52.47
2018-07-15T20:18:38.144Z,52.46
2018-07-15T20:21:07.826Z,52.30
2018-07-15T20:23:37.828Z,52.86
2018-07-15T20:26:07.901Z,53.18
2018-07-15T20:28:37.487Z,53.24
2018-07-15T20:31:07.711Z,53.45
2018-07-15T20:33:38.622Z,52.58
2018-07-15T20:36:09.180Z,53.43
2018-07-15T20:38:38.954Z,54.00
2018-07-15T20:41:08.980Z,54.66
2018-07-15T20:43:39.291Z,55.24
2018-07-15T20:46:10.723Z,54.24
2018-07-15T20:48:41.266Z,53.31
2018-07-15T20:51:11.462Z,51.77
2018-07-15T20:53:41.606Z,52.13
2018-07-15T20:56:11.454Z,53.10
2018-07-15T20:58:40.615Z,53.09
2018-07-15T21:01:09.815Z,53.20
2018-07-15T21:03:39.022Z,53.65
2018-07-15T21:06:08.207Z,52.24
2018-07-15T21:08:37.393Z,51.83
2018-07-15T21:11:06.820Z,52.84
2018-07-15T21:13:36.412Z,52.58
2018-07-15T21:16:05.755Z,53.01
2018-07-15T21:18:34.947Z,52.48
2018-07-15T21:21:04.419Z,53.28
2018-07-15T21:23:33.719Z,53.88
2018-07-15T21:26:02.936Z,55.31
2018-07-15T21:28:32.120Z,55.65
2018-07-15T21:31:01.324Z,56.02
2018-07-15T21:33:30.503Z,55.70
2018-07-15T21:35:59.683Z,57.44
2018-07-15T21:38:28.850Z,57.42
2018-07-15T21:40:58.124Z,57.40
2018-07-15T21:43:27.355Z,58.23
2018-07-15T21:45:56.859Z,58.67
2018-07-15T21:48:26.014Z,58.94
2018-07-15T21:50:55.192Z,60.02
2018-07-15T21:53:25.453Z,59.32
2018-07-15T21:55:54.647Z,59.58
2018-07-15T21:58:23.819Z,60.09
2018-07-15T22:00:54.248Z,60.29
2018-07-15T22:03:24.279Z,60.74
2018-07-15T22:05:53.516Z,60.50
2018-07-15T22:08:34.140Z,60.60
2018-07-15T22:11:03.535Z,60.75
2018-07-15T22:13:32.764Z,60.94
2018-07-15T22:16:01.943Z,61.09
2018-07-15T22:18:31.150Z,61.24
2018-07-15T22:21:00.415Z,61.46
2018-07-15T22:23:29.595Z,61.18
2018-07-15T22:25:58.759Z,61.07
2018-07-15T22:28:28.160Z,61.78
2018-07-15T22:30:57.943Z,62.42
2018-07-15T22:33:27.187Z,61.68
2018-07-15T22:35:56.348Z,62.30
2018-07-15T22:38:26.067Z,61.90
2018-07-15T22:40:55.251Z,61.71
2018-07-15T22:43:24.667Z,63.17
2018-07-15T22:45:53.814Z,62.75
2018-07-15T22:48:23.011Z,64.02
2018-07-15T22:50:52.199Z,63.54
2018-07-15T22:53:21.384Z,63.94
2018-07-15T22:55:50.535Z,63.69
2018-07-15T22:58:19.723Z,64.72
2018-07-15T23:00:49.187Z,65.00
2018-07-15T23:03:18.366Z,64.63
2018-07-15T23:06:27.918Z,64.91
2018-07-15T23:08:57.099Z,64.94
2018-07-15T23:11:26.255Z,63.99
2018-07-15T23:13:55.447Z,64.43
2018-07-15T23:16:24.616Z,65.16
2018-07-15T23:18:54.131Z,65.15
2018-07-15T23:21:23.283Z,65.79
2018-07-15T23:23:52.488Z,65.48
2018-07-15T23:26:21.659Z,65.91
2018-07-15T23:28:51.782Z,66.42
2018-07-15T23:31:20.951Z,65.96
2018-07-15T23:33:50.117Z,66.72
2018-07-15T23:36:19.403Z,66.80
2018-07-15T23:38:48.570Z,67.04
2018-07-15T23:41:17.734Z,67.30
2018-07-15T23:43:47.180Z,67.80
2018-07-15T23:46:16.351Z,68.05
2018-07-15T23:48:45.542Z,67.70
2018-07-15T23:51:14.716Z,67.69
2018-07-15T23:53:43.878Z,69.27
2018-07-15T23:56:13.099Z,68.47
2018-07-15T23:58:42.812Z,68.51
